createdAt,value
2018-09-01T00:00:29.075Z,1020.43
2018-09-01T00:01:28.851Z,1020.46
2018-09-01T00:03:11.168Z,1020.46
2018-09-01T00:04:10.940Z,1020.44
2018-09-01T00:05:10.914Z,1020.43
2018-09-01T00:06:10.889Z,1020.44
2018-09-01T00:07:10.862Z,1020.44
2018-09-01T00:08:10.839Z,1020.46
2018-09-01T00:09:10.809Z,1020.46
2018-09-01T00:10:10.779Z,1020.51
2018-09-01T00:11:10.767Z,1020.54
2018-09-01T00:12:10.728Z,1020.52
2018-09-01T00:13:10.702Z,1020.55
2018-09-01T00:14:10.678Z,1020.57
2018-09-01T00:15:10.652Z,1020.51
2018-09-01T00:16:10.622Z,1020.53
2018-09-01T00:17:10.596Z,1020.58
2018-09-01T00:18:10.568Z,1020.61
2018-09-01T00:19:10.546Z,1020.61
2018-09-01T00:20:10.516Z,1020.60
2018-09-01T00:21:10.489Z,1020.61
2018-09-01T00:22:10.461Z,1020.59
2018-09-01T00:23:10.440Z,1020.62
2018-09-01T00:24:10.410Z,1020.60
2018-09-01T00:25:10.382Z,1020.65
2018-09-01T00:26:10.357Z,1020.56
2018-09-01T00:27:10.334Z,1020.61
2018-09-01T00:28:10.303Z,1020.63
2018-09-01T00:29:10.277Z,1020.61
2018-09-01T00:30:10.248Z,1020.62
2018-09-01T00:31:10.225Z,1020.60
2018-09-01T00:32:10.194Z,1020.61
2018-09-01T00:33:10.168Z,1020.60
2018-09-01T00:34:10.142Z,1020.62
2018-09-01T00:35:10.122Z,1020.62
2018-09-01T00:36:10.093Z,1020.61
2018-09-01T00:37:10.061Z,1020.59
2018-09-01T00:38:10.037Z,1020.63
2018-09-01T00:39:10.010Z,1020.63
2018-09-01T00:43:40.932Z,1020.63
2018-09-01T00:44:40.698Z,1020.63
2018-09-01T00:45:40.672Z,1020.64
2018-09-01T00:46:40.647Z,1020.69
2018-09-01T00:47:40.620Z,1020.63
2018-09-01T00:48:40.592Z,1020.65
2018-09-01T00:49:40.566Z,1020.68
2018-09-01T00:50:40.541Z,1020.66
2018-09-01T00:51:40.510Z,1020.65
2018-09-01T00:52:40.482Z,1020.62
2018-09-01T00:53:40.456Z,1020.61
2018-09-01T00:54:40.431Z,1020.63
2018-09-01T00:55:40.403Z,1020.65
2018-09-01T00:56:40.376Z,1020.67
2018-09-01T00:57:40.355Z,1020.69
2018-09-01T00:58:40.357Z,1020.73
2018-09-01T00:59:40.297Z,1020.70
2018-09-01T01:00:40.269Z,1020.79
2018-09-01T01:01:40.242Z,1020.78
2018-09-01T01:02:40.220Z,1020.73
2018-09-01T01:03:40.187Z,1020.81
2018-09-01T01:04:40.160Z,1020.83
2018-09-01T01:05:40.342Z,1020.79
2018-09-01T01:06:40.108Z,1020.86
2018-09-01T01:07:40.082Z,1020.81
2018-09-01T01:08:40.054Z,1020.85
2018-09-01T01:09:40.050Z,1020.74
2018-09-01T01:10:40.000Z,1020.79
2018-09-01T01:11:39.971Z,1020.76
2018-09-01T01:12:39.947Z,1020.74
2018-09-01T01:13:39.920Z,1020.78
2018-09-01T01:14:39.891Z,1020.77
2018-09-01T01:15:39.865Z,1020.74
2018-09-01T01:16:39.844Z,1020.78
2018-09-01T01:17:39.809Z,1020.78
2018-09-01T01:18:39.786Z,1020.76
2018-09-01T01:19:39.760Z,1020.74
2018-09-01T01:20:40.235Z,1020.79
2018-09-01T01:21:39.706Z,1020.79
2018-09-01T01:22:39.677Z,1020.79
2018-09-01T01:23:39.650Z,1020.75
2018-09-01T01:24:39.623Z,1020.80
2018-09-01T01:25:39.597Z,1020.85
2018-09-01T01:26:39.774Z,1020.72
2018-09-01T01:27:39.554Z,1020.71
2018-09-01T01:28:39.523Z,1020.73
2018-09-01T01:29:39.491Z,1020.71
2018-09-01T01:30:39.467Z,1020.71
2018-09-01T01:31:39.441Z,1020.75
2018-09-01T01:32:39.411Z,1020.78
2018-09-01T01:33:39.593Z,1020.82
2018-09-01T01:34:39.355Z,1020.81
2018-09-01T01:35:39.333Z,1020.86
2018-09-01T01:36:39.309Z,1020.89
2018-09-01T01:37:39.276Z,1020.90
2018-09-01T01:38:39.303Z,1020.86
2018-09-01T01:39:39.223Z,1020.95
2018-09-01T01:40:39.195Z,1020.91
2018-09-01T01:41:39.168Z,1020.95
2018-09-01T01:42:39.140Z,1020.95
2018-09-01T01:43:39.117Z,1020.99
2018-09-01T01:44:39.086Z,1020.97
2018-09-01T01:45:39.060Z,1020.99
2018-09-01T01:46:39.035Z,1020.99
2018-09-01T01:47:39.013Z,1020.97
2018-09-01T01:48:38.979Z,1020.99
2018-09-01T01:49:39.068Z,1021.01
2018-09-01T01:50:38.932Z,1020.97
2018-09-01T01:51:38.899Z,1020.96
2018-09-01T01:52:38.871Z,1020.98
2018-09-01T01:53:38.844Z,1020.96
2018-09-01T01:54:38.828Z,1021.03
2018-09-01T01:55:38.795Z,1021.02
2018-09-01T01:56:38.766Z,1021.01
2018-09-01T01:57:38.739Z,1020.99
2018-09-01T01:58:38.710Z,1021.04
2018-09-01T01:59:38.684Z,1021.03
2018-09-01T02:00:38.669Z,1021.03
2018-09-01T02:01:38.629Z,1020.99
2018-09-01T02:02:38.603Z,1021.02
2018-09-01T02:03:38.577Z,1021.04
2018-09-01T02:04:38.550Z,1021.02
2018-09-01T02:05:38.522Z,1021.03
2018-09-01T02:06:38.497Z,1021.03
2018-09-01T02:07:38.470Z,1021.03
2018-09-01T02:08:38.443Z,1020.98
2018-09-01T02:09:38.416Z,1021.03
2018-09-01T02:10:38.389Z,1021.00
2018-09-01T02:11:38.360Z,1021.01
2018-09-01T02:12:38.333Z,1021.01
2018-09-01T02:13:38.310Z,1021.04
2018-09-01T02:14:38.281Z,1021.02
2018-09-01T02:15:38.256Z,1021.02
2018-09-01T02:16:38.227Z,1021.04
2018-09-01T02:17:38.201Z,1021.02
2018-09-01T02:18:38.174Z,1021.04
2018-09-01T02:19:38.147Z,1021.08
2018-09-01T02:20:38.118Z,1021.04
2018-09-01T02:21:38.099Z,1021.05
2018-09-01T02:22:38.064Z,1021.06
2018-09-01T02:23:38.037Z,1021.09
2018-09-01T02:24:38.017Z,1021.11
2018-09-01T02:25:37.983Z,1021.07
2018-09-01T02:26:37.960Z,1021.13
2018-09-01T02:27:37.931Z,1021.10
2018-09-01T02:28:37.902Z,1021.07
2018-09-01T02:29:37.880Z,1021.15
2018-09-01T02:30:37.848Z,1021.08
2018-09-01T02:31:37.821Z,1021.10
2018-09-01T02:32:37.793Z,1021.11
2018-09-01T02:33:37.767Z,1021.12
2018-09-01T02:34:37.740Z,1021.14
2018-09-01T02:35:37.718Z,1021.12
2018-09-01T02:36:37.685Z,1021.14
2018-09-01T02:37:37.659Z,1021.16
2018-09-01T02:38:38.135Z,1021.19
2018-09-01T02:39:37.615Z,1021.14
2018-09-01T02:40:37.580Z,1021.13
2018-09-01T02:41:37.554Z,1021.14
2018-09-01T02:42:37.525Z,1021.16
2018-09-01T02:43:37.496Z,1021.09
2018-09-01T02:44:37.471Z,1021.18
2018-09-01T02:45:37.444Z,1021.18
2018-09-01T02:46:37.424Z,1021.15
2018-09-01T02:47:37.392Z,1021.18
2018-09-01T02:48:37.364Z,1021.18
2018-09-01T02:49:37.337Z,1021.17
2018-09-01T02:50:37.310Z,1021.19
2018-09-01T02:51:37.286Z,1021.20
2018-09-01T02:52:37.257Z,1021.24
2018-09-01T02:53:40.053Z,1021.23
2018-09-01T02:54:37.206Z,1021.21
2018-09-01T02:55:37.173Z,1021.24
2018-09-01T02:56:37.146Z,1021.23
2018-09-01T02:57:37.120Z,1021.19
2018-09-01T02:58:37.095Z,1021.23
2018-09-01T02:59:37.074Z,1021.25
2018-09-01T03:00:37.041Z,1021.28
2018-09-01T03:01:37.013Z,1021.32
2018-09-01T03:02:37.135Z,1021.30
2018-09-01T03:03:36.957Z,1021.30
2018-09-01T03:04:36.930Z,1021.31
2018-09-01T03:05:36.904Z,1021.25
2018-09-01T03:06:36.876Z,1021.30
2018-09-01T03:07:36.850Z,1021.27
2018-09-01T03:08:36.829Z,1021.31
2018-09-01T03:09:36.795Z,1021.25
2018-09-01T03:10:36.771Z,1021.27
2018-09-01T03:11:36.749Z,1021.30
2018-09-01T03:12:36.715Z,1021.27
2018-09-01T03:13:36.690Z,1021.29
2018-09-01T03:14:36.661Z,1021.28
2018-09-01T03:15:36.634Z,1021.29
2018-09-01T03:16:36.614Z,1021.28
2018-09-01T03:17:36.580Z,1021.29
2018-09-01T03:18:36.557Z,1021.30
2018-09-01T03:19:36.527Z,1021.25
2018-09-01T03:20:36.499Z,1021.26
2018-09-01T03:21:36.473Z,1021.24
2018-09-01T03:22:36.446Z,1021.33
2018-09-01T03:23:36.420Z,1021.31
2018-09-01T03:24:36.396Z,1021.35
2018-09-01T03:25:36.371Z,1021.34
2018-09-01T03:26:36.336Z,1021.34
2018-09-01T03:27:36.309Z,1021.36
2018-09-01T03:28:36.282Z,1021.41
2018-09-01T03:29:36.255Z,1021.39
2018-09-01T03:30:36.231Z,1021.40
2018-09-01T03:31:36.204Z,1021.36
2018-09-01T03:32:36.180Z,1021.40
2018-09-01T03:33:36.150Z,1021.37
2018-09-01T03:34:36.120Z,1021.41
2018-09-01T03:35:36.094Z,1021.41
2018-09-01T03:36:36.072Z,1021.46
2018-09-01T03:37:36.039Z,1021.44
2018-09-01T03:38:36.012Z,1021.42
2018-09-01T03:39:35.985Z,1021.40
2018-09-01T03:40:35.957Z,1021.45
2018-09-01T03:41:35.931Z,1021.42
2018-09-01T03:42:35.905Z,1021.43
2018-09-01T03:43:35.880Z,1021.42
2018-09-01T03:44:35.850Z,1021.37
2018-09-01T03:45:35.824Z,1021.36
2018-09-01T03:46:35.803Z,1021.34
2018-09-01T03:47:35.770Z,1021.30
2018-09-01T03:48:35.745Z,1021.31
2018-09-01T03:49:35.713Z,1021.31
2018-09-01T03:50:35.690Z,1021.35
2018-09-01T03:51:35.663Z,1021.29
2018-09-01T03:52:35.633Z,1021.30
2018-09-01T03:53:35.608Z,1021.29
2018-09-01T03:54:35.579Z,1021.29
2018-09-01T03:55:35.554Z,1021.29
2018-09-01T03:56:35.524Z,1021.31
2018-09-01T03:57:35.497Z,1021.29
2018-09-01T03:58:35.477Z,1021.31
2018-09-01T03:59:35.447Z,1021.32
2018-09-01T04:00:35.419Z,1021.34
2018-09-01T04:01:35.391Z,1021.35
2018-09-01T04:02:35.362Z,1021.34
2018-09-01T04:03:35.341Z,1021.34
2018-09-01T04:04:35.309Z,1021.30
2018-09-01T04:05:35.280Z,1021.28
2018-09-01T04:06:35.254Z,1021.28
2018-09-01T04:07:35.228Z,1021.26
2018-09-01T04:08:35.201Z,1021.29
2018-09-01T04:09:35.172Z,1021.30
2018-09-01T04:10:35.147Z,1021.36
2018-09-01T04:11:35.127Z,1021.31
2018-09-01T04:12:35.091Z,1021.35
2018-09-01T04:13:35.066Z,1021.34
2018-09-01T04:14:35.036Z,1021.33
2018-09-01T04:15:35.009Z,1021.33
2018-09-01T04:16:34.981Z,1021.32
2018-09-01T04:17:34.959Z,1021.35
2018-09-01T04:18:34.930Z,1021.34
2018-09-01T04:19:34.903Z,1021.35
2018-09-01T04:20:34.874Z,1021.30
2018-09-01T04:21:34.848Z,1021.32
2018-09-01T04:22:34.827Z,1021.31
2018-09-01T04:23:34.792Z,1021.31
2018-09-01T04:24:34.766Z,1021.31
2018-09-01T04:25:34.740Z,1021.34
2018-09-01T04:26:34.711Z,1021.33
2018-09-01T04:27:34.685Z,1021.32
2018-09-01T04:28:34.656Z,1021.37
2018-09-01T04:29:34.638Z,1021.36
2018-09-01T04:30:34.605Z,1021.42
2018-09-01T04:31:34.578Z,1021.39
2018-09-01T04:32:34.550Z,1021.48
2018-09-01T04:33:34.523Z,1021.42
2018-09-01T04:34:34.494Z,1021.43
2018-09-01T04:35:34.466Z,1021.45
2018-09-01T04:36:34.441Z,1021.47
2018-09-01T04:37:34.416Z,1021.53
2018-09-01T04:38:34.387Z,1021.52
2018-09-01T04:39:34.360Z,1021.54
2018-09-01T04:40:34.333Z,1021.51
2018-09-01T04:41:34.306Z,1021.56
2018-09-01T04:42:34.279Z,1021.55
2018-09-01T04:43:34.257Z,1021.55
2018-09-01T04:44:34.224Z,1021.54
2018-09-01T04:45:34.198Z,1021.55
2018-09-01T04:46:34.169Z,1021.57
2018-09-01T04:47:34.143Z,1021.60
2018-09-01T04:48:34.115Z,1021.58
2018-09-01T04:49:34.088Z,1021.62
2018-09-01T04:50:34.065Z,1021.65
2018-09-01T04:51:34.036Z,1021.67
2018-09-01T04:52:34.007Z,1021.63
2018-09-01T04:53:33.982Z,1021.67
2018-09-01T04:54:33.953Z,1021.70
2018-09-01T04:55:33.928Z,1021.70
2018-09-01T04:56:33.898Z,1021.68
2018-09-01T04:57:33.873Z,1021.71
2018-09-01T04:58:33.847Z,1021.78
2018-09-01T04:59:33.819Z,1021.75
2018-09-01T05:00:33.790Z,1021.77
2018-09-01T05:01:33.765Z,1021.73
2018-09-01T05:02:33.739Z,1021.71
2018-09-01T05:03:33.713Z,1021.65
2018-09-01T05:04:33.686Z,1021.68
2018-09-01T05:05:34.209Z,1021.72
2018-09-01T05:06:33.630Z,1021.68
2018-09-01T05:07:33.604Z,1021.68
2018-09-01T05:08:33.576Z,1021.70
2018-09-01T05:09:33.555Z,1021.72
2018-09-01T05:10:33.527Z,1021.68
2018-09-01T05:11:33.499Z,1021.74
2018-09-01T05:12:33.473Z,1021.74
2018-09-01T05:13:33.447Z,1021.79
2018-09-01T05:14:33.419Z,1021.81
2018-09-01T05:15:33.396Z,1021.80
2018-09-01T05:16:33.372Z,1021.84
2018-09-01T05:17:33.339Z,1021.82
2018-09-01T05:18:33.311Z,1021.83
2018-09-01T05:19:33.284Z,1021.83
2018-09-01T05:20:33.257Z,1021.85
2018-09-01T05:21:33.230Z,1021.86
2018-09-01T05:22:33.207Z,1021.85
2018-09-01T05:23:33.180Z,1021.84
2018-09-01T05:24:33.154Z,1021.84
2018-09-01T05:25:33.129Z,1021.87
2018-09-01T05:26:33.098Z,1021.86
2018-09-01T05:27:33.076Z,1021.92
2018-09-01T05:28:33.045Z,1021.93
2018-09-01T05:30:57.520Z,1021.97
2018-09-01T05:31:57.291Z,1022.00
2018-09-01T05:32:57.265Z,1022.01
2018-09-01T05:33:57.241Z,1022.00
2018-09-01T05:34:57.218Z,1021.96
2018-09-01T05:35:57.188Z,1021.98
2018-09-01T05:36:57.162Z,1021.97
2018-09-01T05:37:57.137Z,1022.03
2018-09-01T05:41:45.909Z,1022.04
2018-09-01T05:42:45.680Z,1022.06
2018-09-01T05:43:45.660Z,1022.16
2018-09-01T05:44:45.628Z,1022.22
2018-09-01T05:45:45.604Z,1022.22
2018-09-01T05:46:45.577Z,1022.22
2018-09-01T05:47:45.549Z,1022.19
2018-09-01T06:31:39.851Z,1022.76
2018-09-01T06:32:36.597Z,1022.80
2018-09-01T06:33:36.772Z,1022.76
2018-09-01T06:34:36.547Z,1022.78
2018-09-01T06:35:36.722Z,1022.79
2018-09-01T06:36:36.695Z,1022.75
2018-09-01T06:37:36.698Z,1022.78
2018-09-01T06:40:43.092Z,1022.80
2018-09-01T06:41:42.865Z,1022.85
2018-09-01T07:29:04.957Z,1024.01
2018-09-01T07:30:47.463Z,1023.99
2018-09-01T07:31:47.057Z,1023.94
2018-09-01T07:33:28.982Z,1024.15
2018-09-01T07:34:28.958Z,1024.47
2018-09-01T07:35:28.934Z,1024.77
2018-09-01T07:36:29.115Z,1025.91
2018-09-01T07:37:28.895Z,1025.72
2018-09-01T07:38:32.297Z,1025.89
2018-09-01T07:39:29.453Z,1026.28
2018-09-01T07:41:11.174Z,1026.13
2018-09-01T07:42:13.773Z,1026.06
2018-09-01T07:46:02.365Z,1025.91
2018-09-01T07:46:59.725Z,1025.36
2018-09-01T07:47:59.701Z,1025.77
2018-09-01T07:48:59.684Z,1026.07
2018-09-01T07:49:59.498Z,1025.93
2018-09-01T07:51:41.796Z,1025.72
2018-09-01T07:52:41.825Z,1024.93
2018-09-01T07:53:41.755Z,1024.57
2018-09-01T07:54:41.781Z,1026.10
2018-09-01T07:55:41.717Z,1026.16
2018-09-01T07:56:41.698Z,1026.21
2018-09-01T07:57:41.476Z,1026.16
2018-09-01T07:58:41.455Z,1026.20
2018-09-01T07:59:41.639Z,1026.15
2018-09-01T08:00:41.619Z,1026.13
2018-09-01T08:01:41.600Z,1026.15
2018-09-01T08:02:41.583Z,1026.20
2018-09-01T08:03:41.565Z,1026.29
2018-09-01T08:04:41.344Z,1026.30
2018-09-01T08:05:41.325Z,1026.27
2018-09-01T08:06:41.308Z,1026.25
2018-09-01T08:07:41.495Z,1026.19
2018-09-01T08:08:41.270Z,1026.17
2018-09-01T08:09:41.454Z,1026.18
2018-09-01T08:10:41.435Z,1026.15
2018-09-01T08:11:41.415Z,1026.15
2018-09-01T08:12:41.196Z,1026.10
2018-09-01T08:13:41.191Z,1026.11
2018-09-01T08:14:41.454Z,1026.07
2018-09-01T08:15:41.356Z,1026.05
2018-09-01T08:16:41.334Z,1026.08
2018-09-01T08:17:41.109Z,1026.03
2018-09-01T08:18:41.293Z,1025.95
2018-09-01T08:19:41.074Z,1026.05
2018-09-01T08:20:41.257Z,1025.73
2018-09-01T08:21:41.242Z,1025.93
2018-09-01T08:22:41.223Z,1026.19
2018-09-01T08:23:42.420Z,1026.14
2018-09-01T08:24:41.189Z,1026.21
2018-09-01T08:29:54.113Z,1025.42
2018-09-01T08:30:53.894Z,1025.33
2018-09-01T08:31:53.877Z,1025.70
2018-09-01T08:32:54.065Z,1025.06
2018-09-01T08:33:54.060Z,1025.23
2018-09-01T08:37:00.501Z,1026.14
2018-09-01T08:38:00.486Z,1026.18
2018-09-01T08:39:42.626Z,1026.40
2018-09-01T08:40:42.404Z,1026.39
2018-09-01T08:41:42.590Z,1026.24
2018-09-01T08:42:42.373Z,1024.84
2018-09-01T08:43:42.558Z,1025.01
2018-09-01T08:44:42.338Z,1025.15
2018-09-01T08:45:42.530Z,1025.22
2018-09-01T08:46:42.304Z,1024.85
2018-09-01T08:47:42.290Z,1025.12
2018-09-01T08:49:24.630Z,1024.96
2018-09-01T08:50:24.412Z,1024.97
2018-09-01T08:51:24.394Z,1026.47
2018-09-01T08:52:24.585Z,1026.01
2018-09-01T08:53:24.361Z,1024.98
2018-09-01T08:54:24.353Z,1024.79
2018-09-01T08:55:24.334Z,1024.87
2018-09-01T08:56:24.359Z,1024.79
2018-09-01T08:57:24.298Z,1024.70
2018-09-01T08:58:24.276Z,1024.74
2018-09-01T08:59:24.256Z,1026.02
2018-09-01T09:00:24.242Z,1025.42
2018-09-01T09:01:24.229Z,1024.91
2018-09-01T09:02:24.204Z,1025.18
2018-09-01T09:03:24.189Z,1025.29
2018-09-01T09:04:24.173Z,1025.44
2018-09-01T09:05:24.207Z,1025.68
2018-09-01T09:06:24.136Z,1026.03
2018-09-01T09:07:24.128Z,1025.94
2018-09-01T09:08:24.100Z,1024.88
2018-09-01T09:09:24.085Z,1024.81
2018-09-01T09:10:24.079Z,1024.95
2018-09-01T09:11:24.087Z,1025.22
2018-09-01T09:12:24.034Z,1024.99
2018-09-01T09:13:24.017Z,1024.89
2018-09-01T09:14:23.999Z,1024.79
2018-09-01T09:15:23.987Z,1024.78
2018-09-01T09:16:23.964Z,1024.66
2018-09-01T09:17:23.946Z,1024.71
2018-09-01T09:18:23.953Z,1024.95
2018-09-01T09:19:23.911Z,1024.78
2018-09-01T09:20:23.895Z,1024.88
2018-09-01T09:21:23.878Z,1024.94
2018-09-01T09:22:23.859Z,1024.68
2018-09-01T09:23:23.846Z,1024.65
2018-09-01T09:24:24.030Z,1024.71
2018-09-01T09:25:23.813Z,1024.91
2018-09-01T09:26:23.791Z,1024.87
2018-09-01T09:27:23.774Z,1024.95
2018-09-01T09:28:23.758Z,1024.90
2018-09-01T09:29:23.740Z,1024.88
2018-09-01T09:30:23.721Z,1024.87
2018-09-01T09:31:23.703Z,1024.91
2018-09-01T09:32:23.686Z,1024.89
2018-09-01T09:33:23.671Z,1024.83
2018-09-01T09:34:23.709Z,1024.75
2018-09-01T09:35:23.835Z,1024.80
2018-09-01T09:36:23.617Z,1024.86
2018-09-01T09:37:23.600Z,1024.82
2018-09-01T09:38:23.581Z,1024.78
2018-09-01T09:39:23.563Z,1024.81
2018-09-01T09:40:23.748Z,1024.83
2018-09-01T09:41:23.531Z,1024.75
2018-09-01T09:42:23.510Z,1024.81
2018-09-01T09:44:48.011Z,1024.73
2018-09-01T09:45:47.793Z,1024.90
2018-09-01T09:46:47.981Z,1024.83
2018-09-01T09:47:47.763Z,1024.92
2018-09-01T09:51:36.578Z,1024.95
2018-09-01T09:52:36.360Z,1024.95
2018-09-01T09:54:18.710Z,1024.86
2018-09-01T09:55:18.689Z,1024.63
2018-09-01T09:56:18.473Z,1024.89
2018-09-01T09:57:18.458Z,1024.66
2018-09-01T09:58:18.505Z,1024.94
2018-09-01T09:59:18.426Z,1024.72
2018-09-01T10:00:18.411Z,1024.91
2018-09-01T10:01:18.394Z,1024.95
2018-09-01T10:02:18.378Z,1025.00
2018-09-01T10:03:18.362Z,1024.94
2018-09-01T10:04:18.346Z,1024.98
2018-09-01T10:05:18.430Z,1025.04
2018-09-01T10:06:18.321Z,1025.03
2018-09-01T10:07:18.505Z,1025.13
2018-09-01T10:08:18.493Z,1025.20
2018-09-01T10:14:13.584Z,1025.15
2018-09-01T10:15:13.569Z,1025.14
2018-09-01T10:16:13.574Z,1025.10
2018-09-01T10:17:13.544Z,1025.08
2018-09-01T10:19:37.995Z,1024.63
2018-09-01T10:20:38.106Z,1024.72
2018-09-01T10:21:37.816Z,1024.57
2018-09-01T10:35:16.632Z,1024.55
2018-09-01T10:36:16.609Z,1024.59
2018-09-01T10:37:16.388Z,1024.53
2018-09-01T10:42:29.502Z,1024.49
2018-09-01T10:43:29.278Z,1024.49
2018-09-01T10:45:11.617Z,1024.49
2018-09-01T10:46:11.405Z,1024.44
2018-09-01T10:47:11.576Z,1024.43
2018-09-01T10:48:11.588Z,1024.49
2018-09-01T10:49:11.336Z,1024.49
2018-09-01T10:50:11.324Z,1024.49
2018-09-01T10:51:11.295Z,1024.47
2018-09-01T10:52:11.275Z,1024.48
2018-09-01T10:53:11.255Z,1024.45
2018-09-01T10:54:11.233Z,1024.47
2018-09-01T10:55:11.413Z,1024.47
2018-09-01T10:56:11.193Z,1024.45
2018-09-01T10:57:11.173Z,1024.48
2018-09-01T10:59:35.811Z,1024.50
2018-09-01T11:00:35.438Z,1024.56
2018-09-01T11:01:35.417Z,1024.58
2018-09-01T11:02:35.400Z,1025.10
2018-09-01T11:03:35.378Z,1025.04
2018-09-01T11:06:42.127Z,1025.14
2018-09-01T11:07:41.801Z,1025.18
2018-09-01T11:25:33.873Z,1024.57
2018-09-01T11:26:33.503Z,1024.56
2018-09-01T11:27:33.539Z,1024.55
2018-09-01T11:28:33.463Z,1024.53
2018-09-01T11:29:33.450Z,1024.55
2018-09-01T11:30:33.630Z,1024.55
2018-09-01T11:31:33.404Z,1024.55
2018-09-01T11:32:33.385Z,1024.74
2018-09-01T11:43:23.729Z,1025.02
2018-09-01T11:59:09.006Z,1024.65
2018-09-01T12:00:51.146Z,1024.72
2018-09-01T12:01:51.133Z,1024.78
2018-09-01T12:02:51.115Z,1024.75
2018-09-01T12:03:51.711Z,1024.73
2018-09-01T12:04:50.885Z,1024.69
2018-09-01T12:05:50.871Z,1024.64
2018-09-01T12:06:50.865Z,1024.67
2018-09-01T12:07:50.846Z,1024.68
2018-09-01T12:08:50.885Z,1024.69
2018-09-01T12:09:50.812Z,1024.75
2018-09-01T12:10:54.835Z,1024.77
2018-09-01T12:13:15.509Z,1024.83
2018-09-01T12:14:15.297Z,1024.97
2018-09-01T12:15:15.079Z,1024.95
2018-09-01T12:22:35.916Z,1024.70
2018-09-01T12:23:35.495Z,1024.62
2018-09-01T12:24:34.468Z,1024.64
2018-09-01T12:25:34.455Z,1024.61
2018-09-01T12:30:47.584Z,1024.56
2018-09-01T12:31:47.363Z,1024.67
2018-09-01T12:32:47.344Z,1024.95
2018-09-01T14:05:07.928Z,1024.33
2018-09-01T14:06:07.704Z,1024.36
2018-09-01T14:07:07.686Z,1024.42
2018-09-01T14:08:07.671Z,1025.37
2018-09-01T14:09:07.653Z,1025.25
2018-09-01T14:10:07.634Z,1025.39
2018-09-01T14:11:07.618Z,1025.35
2018-09-01T14:12:07.598Z,1025.28
2018-09-01T14:13:07.583Z,1025.11
2018-09-01T14:14:07.563Z,1025.05
2018-09-01T14:15:07.548Z,1025.05
2018-09-01T14:16:07.581Z,1025.03
2018-09-01T14:17:07.512Z,1024.98
2018-09-01T14:18:07.495Z,1024.99
2018-09-01T14:19:07.484Z,1024.97
2018-09-01T14:20:07.462Z,1024.89
2018-09-01T14:21:07.502Z,1024.83
2018-09-01T14:22:07.430Z,1024.91
2018-09-01T14:23:07.410Z,1024.94
2018-09-01T14:24:07.393Z,1025.00
2018-09-01T14:25:07.377Z,1025.00
2018-09-01T14:26:07.360Z,1024.99
2018-09-01T14:27:07.343Z,1024.99
2018-09-01T14:28:07.328Z,1024.99
2018-09-01T14:29:07.314Z,1024.89
2018-09-01T14:30:07.298Z,1024.84
2018-09-01T16:03:51.977Z,1024.21
2018-09-01T16:09:05.026Z,1024.19
2018-09-01T16:10:04.655Z,1024.19
2018-09-01T16:11:04.835Z,1024.16
2018-09-01T16:12:46.968Z,1024.42
2018-09-01T16:13:46.946Z,1024.44
2018-09-01T16:14:46.925Z,1024.44
2018-09-01T16:16:29.059Z,1024.46
2018-09-01T16:17:28.836Z,1024.44
2018-09-01T16:18:28.815Z,1024.41
2018-09-01T16:19:28.797Z,1024.41
2018-09-01T16:20:28.776Z,1024.41
2018-09-01T16:21:28.754Z,1024.39
2018-09-01T16:22:28.734Z,1024.45
2018-09-01T16:23:28.713Z,1024.42
2018-09-01T16:24:28.750Z,1024.41
2018-09-01T16:25:28.673Z,1024.45
2018-09-01T16:26:28.653Z,1024.43
2018-09-01T16:27:28.634Z,1024.46
2018-09-01T16:28:28.611Z,1024.32
2018-09-01T16:29:28.594Z,1024.45
2018-09-01T16:30:28.570Z,1024.43
2018-09-01T16:31:28.548Z,1024.42
2018-09-01T16:32:28.830Z,1024.44
2018-09-01T16:33:28.510Z,1024.20
2018-09-01T16:34:28.509Z,1024.31
2018-09-01T16:35:28.466Z,1024.28
2018-09-01T16:36:28.452Z,1024.38
2018-09-01T16:37:28.432Z,1024.40
2018-09-01T16:38:28.606Z,1024.37
2018-09-01T16:39:28.384Z,1024.38
2018-09-01T16:40:28.365Z,1024.43
2018-09-01T16:46:23.628Z,1024.40
2018-09-01T16:47:23.600Z,1024.39
2018-09-01T16:48:23.374Z,1024.35
2018-09-01T16:49:23.356Z,1024.45
2018-09-01T16:50:23.337Z,1024.25
2018-09-01T16:51:23.313Z,1024.46
2018-09-01T16:52:23.293Z,1024.44
2018-09-01T16:53:23.269Z,1024.43
2018-09-01T16:54:23.249Z,1024.44
2018-09-01T16:55:23.227Z,1024.42
2018-09-01T16:56:23.206Z,1024.40
2018-09-01T16:57:23.187Z,1024.38
2018-09-01T16:58:23.165Z,1024.43
2018-09-01T16:59:23.143Z,1024.37
2018-09-01T17:00:23.189Z,1024.37
2018-09-01T17:01:23.105Z,1024.26
2018-09-01T17:02:23.083Z,1024.31
2018-09-01T17:03:23.061Z,1024.36
2018-09-01T17:04:23.038Z,1024.27
2018-09-01T17:05:23.018Z,1024.27
2018-09-01T17:06:23.198Z,1024.21
2018-09-01T17:07:23.176Z,1024.24
2018-09-01T17:09:07.929Z,1024.27
2018-09-01T17:10:05.287Z,1024.22
2018-09-01T17:11:05.266Z,1024.19
2018-09-01T17:12:05.044Z,1024.24
2018-09-01T17:13:05.224Z,1024.23
2018-09-01T17:14:06.012Z,1024.23
2018-09-01T17:15:05.204Z,1024.23
2018-09-01T17:16:04.954Z,1024.23
2018-09-01T17:17:05.138Z,1024.29
2018-09-01T17:18:05.112Z,1024.25
2018-09-01T17:19:47.445Z,1024.25
2018-09-01T17:20:47.221Z,1024.25
2018-09-01T17:21:47.198Z,1024.28
2018-09-01T17:22:47.788Z,1024.30
2018-09-01T17:23:47.157Z,1024.28
2018-09-01T17:24:46.932Z,1024.31
2018-09-01T17:25:46.910Z,1024.31
2018-09-01T17:26:46.884Z,1024.34
2018-09-01T17:27:46.866Z,1024.36
2018-09-01T17:28:46.843Z,1024.34
2018-09-01T17:29:47.019Z,1024.35
2018-09-01T17:30:46.998Z,1024.40
2018-09-01T17:31:46.775Z,1024.37
2018-09-01T17:32:46.953Z,1024.37
2018-09-01T17:33:46.811Z,1024.40
2018-09-01T17:34:46.703Z,1024.39
2018-09-01T17:35:46.683Z,1024.34
2018-09-01T17:36:46.861Z,1024.39
2018-09-01T17:37:46.838Z,1024.36
2018-09-01T17:38:46.612Z,1024.37
2018-09-01T17:39:46.795Z,1024.37
2018-09-01T17:40:46.570Z,1024.33
2018-09-01T17:41:46.749Z,1024.34
2018-09-01T17:42:46.521Z,1024.34
2018-09-01T17:43:46.905Z,1024.38
2018-09-01T17:44:46.677Z,1024.36
2018-09-01T17:45:46.751Z,1024.38
2018-09-01T17:46:46.427Z,1024.43
2018-09-01T17:47:46.408Z,1024.41
2018-09-01T17:48:50.013Z,1024.40
2018-09-01T17:49:46.560Z,1024.40
2018-09-01T17:50:46.334Z,1024.43
2018-09-01T17:51:46.312Z,1024.44
2018-09-01T17:52:46.287Z,1024.37
2018-09-01T17:53:46.263Z,1024.43
2018-09-01T17:54:46.243Z,1024.43
2018-09-01T17:55:46.223Z,1024.41
2018-09-01T17:56:46.195Z,1024.41
2018-09-01T17:57:46.175Z,1024.45
2018-09-01T17:58:46.151Z,1024.46
2018-09-01T17:59:46.124Z,1024.44
2018-09-01T18:00:46.099Z,1024.43
2018-09-01T18:01:46.076Z,1024.45
2018-09-01T18:02:46.055Z,1024.44
2018-09-01T18:03:46.031Z,1024.46
2018-09-01T18:04:46.008Z,1024.49
2018-09-01T18:05:45.984Z,1024.50
2018-09-01T18:06:45.963Z,1024.53
2018-09-01T18:07:45.938Z,1024.55
2018-09-01T18:08:45.917Z,1024.60
2018-09-01T18:09:45.890Z,1024.56
2018-09-01T18:10:45.902Z,1024.58
2018-09-01T18:11:45.841Z,1024.57
2018-09-01T18:12:45.821Z,1024.54
2018-09-01T18:13:45.794Z,1024.58
2018-09-01T18:14:45.773Z,1024.55
2018-09-01T18:15:45.749Z,1024.53
2018-09-01T18:16:45.725Z,1024.55
2018-09-01T18:17:45.703Z,1024.53
2018-09-01T18:18:45.680Z,1024.60
2018-09-01T18:19:45.656Z,1024.53
2018-09-01T18:20:45.628Z,1024.58
2018-09-01T18:21:45.604Z,1024.60
2018-09-01T18:22:45.585Z,1024.59
2018-09-01T18:23:45.559Z,1024.65
2018-09-01T18:24:45.533Z,1024.65
2018-09-01T18:25:45.511Z,1024.64
2018-09-01T18:26:45.485Z,1024.66
2018-09-01T18:27:45.462Z,1024.62
2018-09-01T18:28:45.438Z,1024.62
2018-09-01T18:29:45.418Z,1024.66
2018-09-01T18:30:45.392Z,1024.63
2018-09-01T18:31:45.372Z,1024.61
2018-09-01T18:32:45.344Z,1024.63
2018-09-01T18:33:45.321Z,1024.62
2018-09-01T18:34:45.298Z,1024.63
2018-09-01T18:35:45.329Z,1024.68
2018-09-01T18:36:45.246Z,1024.67
2018-09-01T18:37:45.223Z,1024.70
2018-09-01T18:38:45.198Z,1024.73
2018-09-01T18:39:45.179Z,1024.74
2018-09-01T18:40:45.149Z,1024.76